sensor_id;sensor_type;location;lat;lon;timestamp;P1;durP1;ratioP1;P2;durP2;ratioP2
249;SDS011;109;19.806;-70.704;2023-04-06T00:00:10;21.73;;;5.20;;
249;SDS011;109;19.806;-70.704;2023-04-06T00:02:37;35.57;;;6.10;;
249;SDS011;109;19.806;-70.704;2023-04-06T00:05:04;28.03;;;5.10;;
249;SDS011;109;19.806;-70.704;2023-04-06T00:07:31;27.80;;;5.70;;
249;SDS011;109;19.806;-70.704;2023-04-06T00:09:58;30.77;;;5.13;;
249;SDS011;109;19.806;-70.704;2023-04-06T00:12:25;34.60;;;6.50;;
249;SDS011;109;19.806;-70.704;2023-04-06T00:14:52;21.13;;;4.60;;
249;SDS011;109;19.806;-70.704;2023-04-06T00:17:18;27.87;;;5.10;;
249;SDS011;109;19.806;-70.704;2023-04-06T00:19:45;26.57;;;5.50;;
249;SDS011;109;19.806;-70.704;2023-04-06T00:22:11;42.20;;;8.30;;
249;SDS011;109;19.806;-70.704;2023-04-06T00:24:46;24.53;;;4.40;;
249;SDS011;109;19.806;-70.704;2023-04-06T00:27:13;25.90;;;5.30;;
249;SDS011;109;19.806;-70.704;2023-04-06T00:29:46;35.77;;;6.60;;
249;SDS011;109;19.806;-70.704;2023-04-06T00:32:13;21.37;;;4.70;;
249;SDS011;109;19.806;-70.704;2023-04-06T00:34:46;36.67;;;6.80;;
249;SDS011;109;19.806;-70.704;2023-04-06T00:37:34;30.90;;;5.40;;
249;SDS011;109;19.806;-70.704;2023-04-06T00:40:08;32.43;;;5.67;;
249;SDS011;109;19.806;-70.704;2023-04-06T00:42:35;28.50;;;6.27;;
249;SDS011;109;19.806;-70.704;2023-04-06T00:45:09;38.37;;;6.10;;
249;SDS011;109;19.806;-70.704;2023-04-06T00:47:36;29.90;;;5.80;;
249;SDS011;109;19.806;-70.704;2023-04-06T00:50:10;20.67;;;4.97;;
249;SDS011;109;19.806;-70.704;2023-04-06T00:52:36;33.43;;;5.23;;
249;SDS011;109;19.806;-70.704;2023-04-06T00:55:10;17.10;;;4.47;;
249;SDS011;109;19.806;-70.704;2023-04-06T00:57:40;27.43;;;5.80;;
249;SDS011;109;19.806;-70.704;2023-04-06T01:00:14;22.33;;;5.47;;
249;SDS011;109;19.806;-70.704;2023-04-06T01:02:44;35.43;;;7.17;;
249;SDS011;109;19.806;-70.704;2023-04-06T01:05:22;35.37;;;6.23;;
249;SDS011;109;19.806;-70.704;2023-04-06T01:07:57;40.10;;;6.93;;
249;SDS011;109;19.806;-70.704;2023-04-06T01:10:27;21.40;;;4.37;;
249;SDS011;109;19.806;-70.704;2023-04-06T01:13:11;27.13;;;4.87;;
249;SDS011;109;19.806;-70.704;2023-04-06T01:15:57;35.53;;;5.70;;
249;SDS011;109;19.806;-70.704;2023-04-06T01:18:50;43.33;;;6.20;;
249;SDS011;109;19.806;-70.704;2023-04-06T01:21:28;57.77;;;5.80;;
249;SDS011;109;19.806;-70.704;2023-04-06T01:24:22;27.90;;;6.00;;
249;SDS011;109;19.806;-70.704;2023-04-06T01:27:15;38.00;;;6.30;;
249;SDS011;109;19.806;-70.704;2023-04-06T01:30:09;36.97;;;6.63;;
249;SDS011;109;19.806;-70.704;2023-04-06T01:32:52;36.80;;;5.87;;
249;SDS011;109;19.806;-70.704;2023-04-06T01:35:44;42.50;;;6.87;;
249;SDS011;109;19.806;-70.704;2023-04-06T01:38:31;33.60;;;6.90;;
249;SDS011;109;19.806;-70.704;2023-04-06T01:41:05;26.00;;;5.57;;
249;SDS011;109;19.806;-70.704;2023-04-06T01:43:44;29.77;;;6.63;;
249;SDS011;109;19.806;-70.704;2023-04-06T01:46:22;39.03;;;7.23;;
249;SDS011;109;19.806;-70.704;2023-04-06T01:48:58;31.27;;;7.90;;
249;SDS011;109;19.806;-70.704;2023-04-06T01:51:46;23.83;;;5.93;;
249;SDS011;109;19.806;-70.704;2023-04-06T01:54:20;26.70;;;5.77;;
249;SDS011;109;19.806;-70.704;2023-04-06T01:57:05;24.93;;;8.27;;
249;SDS011;109;19.806;-70.704;2023-04-06T01:59:42;19.23;;;5.73;;
249;SDS011;109;19.806;-70.704;2023-04-06T02:02:24;19.53;;;6.47;;
249;SDS011;109;19.806;-70.704;2023-04-06T02:05:01;19.97;;;5.67;;
249;SDS011;109;19.806;-70.704;2023-04-06T02:07:35;18.80;;;6.40;;
249;SDS011;109;19.806;-70.704;2023-04-06T02:10:02;23.17;;;6.03;;
249;SDS011;109;19.806;-70.704;2023-04-06T02:12:37;15.47;;;5.47;;
249;SDS011;109;19.806;-70.704;2023-04-06T02:15:06;17.90;;;5.50;;
249;SDS011;109;19.806;-70.704;2023-04-06T02:17:40;20.80;;;5.27;;
249;SDS011;109;19.806;-70.704;2023-04-06T02:20:15;15.47;;;5.50;;
249;SDS011;109;19.806;-70.704;2023-04-06T02:22:49;16.03;;;5.40;;
249;SDS011;109;19.806;-70.704;2023-04-06T02:25:15;18.20;;;5.33;;
249;SDS011;109;19.806;-70.704;2023-04-06T02:27:49;10.27;;;5.20;;
249;SDS011;109;19.806;-70.704;2023-04-06T02:30:15;24.63;;;5.90;;
249;SDS011;109;19.806;-70.704;2023-04-06T02:32:48;17.67;;;6.20;;
249;SDS011;109;19.806;-70.704;2023-04-06T02:35:15;15.30;;;5.50;;
249;SDS011;109;19.806;-70.704;2023-04-06T02:37:53;17.57;;;4.23;;
249;SDS011;109;19.806;-70.704;2023-04-06T02:40:32;22.97;;;5.00;;
249;SDS011;109;19.806;-70.704;2023-04-06T02:43:08;24.30;;;5.73;;
249;SDS011;109;19.806;-70.704;2023-04-06T02:45:40;21.53;;;3.77;;
249;SDS011;109;19.806;-70.704;2023-04-06T02:48:09;12.57;;;3.50;;
249;SDS011;109;19.806;-70.704;2023-04-06T02:50:43;17.47;;;4.20;;
249;SDS011;109;19.806;-70.704;2023-04-06T02:53:09;31.83;;;4.50;;
249;SDS011;109;19.806;-70.704;2023-04-06T02:55:42;21.10;;;4.00;;
249;SDS011;109;19.806;-70.704;2023-04-06T02:58:09;27.60;;;5.17;;
249;SDS011;109;19.806;-70.704;2023-04-06T03:00:47;28.60;;;5.33;;
249;SDS011;109;19.806;-70.704;2023-04-06T03:03:19;26.03;;;4.77;;
249;SDS011;109;19.806;-70.704;2023-04-06T03:05:47;20.10;;;4.27;;
249;SDS011;109;19.806;-70.704;2023-04-06T03:08:25;17.70;;;4.60;;
249;SDS011;109;19.806;-70.704;2023-04-06T03:10:58;15.97;;;5.13;;
249;SDS011;109;19.806;-70.704;2023-04-06T03:13:33;16.80;;;4.30;;
249;SDS011;109;19.806;-70.704;2023-04-06T03:16:07;21.97;;;5.50;;
249;SDS011;109;19.806;-70.704;2023-04-06T03:18:34;13.90;;;4.47;;
249;SDS011;109;19.806;-70.704;2023-04-06T03:21:15;23.10;;;5.10;;
249;SDS011;109;19.806;-70.704;2023-04-06T03:23:54;22.17;;;5.43;;
249;SDS011;109;19.806;-70.704;2023-04-06T03:26:27;20.27;;;5.10;;
249;SDS011;109;19.806;-70.704;2023-04-06T03:28:54;20.73;;;5.83;;
249;SDS011;109;19.806;-70.704;2023-04-06T03:31:30;17.40;;;6.37;;
249;SDS011;109;19.806;-70.704;2023-04-06T03:33:59;21.77;;;7.00;;
249;SDS011;109;19.806;-70.704;2023-04-06T03:36:34;18.33;;;6.60;;
249;SDS011;109;19.806;-70.704;2023-04-06T03:39:21;16.53;;;6.40;;
249;SDS011;109;19.806;-70.704;2023-04-06T03:41:55;28.70;;;7.63;;
249;SDS011;109;19.806;-70.704;2023-04-06T03:44:36;25.60;;;6.63;;
249;SDS011;109;19.806;-70.704;2023-04-06T03:47:10;18.07;;;6.07;;
249;SDS011;109;19.806;-70.704;2023-04-06T03:49:36;22.83;;;6.30;;
249;SDS011;109;19.806;-70.704;2023-04-06T03:52:12;19.60;;;6.13;;
249;SDS011;109;19.806;-70.704;2023-04-06T03:54:38;28.57;;;6.20;;
249;SDS011;109;19.806;-70.704;2023-04-06T03:57:12;21.17;;;5.63;;
249;SDS011;109;19.806;-70.704;2023-04-06T03:59:38;24.97;;;6.57;;
249;SDS011;109;19.806;-70.704;2023-04-06T04:02:19;20.90;;;5.50;;
249;SDS011;109;19.806;-70.704;2023-04-06T04:04:52;18.60;;;5.00;;
249;SDS011;109;19.806;-70.704;2023-04-06T04:07:19;17.30;;;5.73;;
249;SDS011;109;19.806;-70.704;2023-04-06T04:09:52;24.47;;;5.33;;
249;SDS011;109;19.806;-70.704;2023-04-06T04:12:19;17.90;;;5.60;;
249;SDS011;109;19.806;-70.704;2023-04-06T04:14:52;18.53;;;5.70;;
249;SDS011;109;19.806;-70.704;2023-04-06T04:17:19;16.40;;;5.77;;
249;SDS011;109;19.806;-70.704;2023-04-06T04:19:52;15.33;;;4.93;;
249;SDS011;109;19.806;-70.704;2023-04-06T04:22:19;21.97;;;5.50;;
249;SDS011;109;19.806;-70.704;2023-04-06T04:24:53;16.80;;;5.13;;
249;SDS011;109;19.806;-70.704;2023-04-06T04:27:20;17.23;;;5.07;;
249;SDS011;109;19.806;-70.704;2023-04-06T04:29:54;14.33;;;4.93;;
249;SDS011;109;19.806;-70.704;2023-04-06T04:32:21;21.07;;;6.70;;
249;SDS011;109;19.806;-70.704;2023-04-06T04:34:56;24.10;;;5.83;;
249;SDS011;109;19.806;-70.704;2023-04-06T04:37:45;22.90;;;5.33;;
249;SDS011;109;19.806;-70.704;2023-04-06T04:40:19;16.10;;;5.37;;
249;SDS011;109;19.806;-70.704;2023-04-06T04:43:00;18.63;;;5.50;;
249;SDS011;109;19.806;-70.704;2023-04-06T04:45:34;20.03;;;5.20;;
249;SDS011;109;19.806;-70.704;2023-04-06T04:48:13;16.40;;;5.70;;
249;SDS011;109;19.806;-70.704;2023-04-06T04:50:54;23.43;;;5.50;;
249;SDS011;109;19.806;-70.704;2023-04-06T04:53:35;16.53;;;5.20;;
249;SDS011;109;19.806;-70.704;2023-04-06T04:56:18;20.00;;;4.97;;
249;SDS011;109;19.806;-70.704;2023-04-06T04:58:57;20.70;;;5.70;;
249;SDS011;109;19.806;-70.704;2023-04-06T05:01:35;21.20;;;6.00;;
249;SDS011;109;19.806;-70.704;2023-04-06T05:04:15;23.40;;;5.13;;
249;SDS011;109;19.806;-70.704;2023-04-06T05:06:50;15.20;;;4.90;;
249;SDS011;109;19.806;-70.704;2023-04-06T05:09:35;18.27;;;5.33;;
249;SDS011;109;19.806;-70.704;2023-04-06T05:12:03;18.47;;;4.50;;
249;SDS011;109;19.806;-70.704;2023-04-06T05:14:45;23.57;;;5.20;;
249;SDS011;109;19.806;-70.704;2023-04-06T05:17:21;21.43;;;5.40;;
249;SDS011;109;19.806;-70.704;2023-04-06T05:19:49;17.33;;;4.80;;
249;SDS011;109;19.806;-70.704;2023-04-06T05:22:24;28.20;;;6.60;;
249;SDS011;109;19.806;-70.704;2023-04-06T05:25:01;21.67;;;5.77;;
249;SDS011;109;19.806;-70.704;2023-04-06T05:27:35;19.20;;;5.33;;
249;SDS011;109;19.806;-70.704;2023-04-06T05:30:07;16.30;;;4.70;;
249;SDS011;109;19.806;-70.704;2023-04-06T05:32:44;20.90;;;5.60;;
249;SDS011;109;19.806;-70.704;2023-04-06T05:35:19;24.77;;;6.77;;
249;SDS011;109;19.806;-70.704;2023-04-06T05:38:13;22.27;;;5.60;;
249;SDS011;109;19.806;-70.704;2023-04-06T05:40:47;15.80;;;4.80;;
249;SDS011;109;19.806;-70.704;2023-04-06T05:43:24;27.57;;;5.33;;
249;SDS011;109;19.806;-70.704;2023-04-06T05:45:59;24.93;;;5.17;;
249;SDS011;109;19.806;-70.704;2023-04-06T05:48:26;27.70;;;6.13;;
249;SDS011;109;19.806;-70.704;2023-04-06T05:51:00;22.13;;;5.23;;
249;SDS011;109;19.806;-70.704;2023-04-06T05:53:37;22.60;;;6.07;;
249;SDS011;109;19.806;-70.704;2023-04-06T05:56:11;16.00;;;4.60;;
249;SDS011;109;19.806;-70.704;2023-04-06T05:58:39;22.13;;;5.40;;
249;SDS011;109;19.806;-70.704;2023-04-06T06:01:22;22.53;;;5.20;;
249;SDS011;109;19.806;-70.704;2023-04-06T06:03:55;22.60;;;5.10;;
249;SDS011;109;19.806;-70.704;2023-04-06T06:06:26;22.10;;;5.33;;
249;SDS011;109;19.806;-70.704;2023-04-06T06:09:13;17.90;;;6.20;;
249;SDS011;109;19.806;-70.704;2023-04-06T06:11:59;16.93;;;4.90;;
249;SDS011;109;19.806;-70.704;2023-04-06T06:14:33;25.20;;;5.30;;
249;SDS011;109;19.806;-70.704;2023-04-06T06:17:00;19.37;;;4.53;;
249;SDS011;109;19.806;-70.704;2023-04-06T06:19:33;23.30;;;5.37;;
249;SDS011;109;19.806;-70.704;2023-04-06T06:22:03;26.07;;;4.90;;
249;SDS011;109;19.806;-70.704;2023-04-06T06:24:40;15.63;;;5.60;;
249;SDS011;109;19.806;-70.704;2023-04-06T06:27:16;17.13;;;4.80;;
249;SDS011;109;19.806;-70.704;2023-04-06T06:29:43;29.93;;;5.90;;
249;SDS011;109;19.806;-70.704;2023-04-06T06:32:16;14.90;;;4.87;;
249;SDS011;109;19.806;-70.704;2023-04-06T06:34:47;22.20;;;5.53;;
249;SDS011;109;19.806;-70.704;2023-04-06T06:37:20;21.03;;;5.77;;
249;SDS011;109;19.806;-70.704;2023-04-06T06:40:08;16.23;;;4.90;;
249;SDS011;109;19.806;-70.704;2023-04-06T06:42:43;16.17;;;5.33;;
249;SDS011;109;19.806;-70.704;2023-04-06T06:45:47;19.67;;;4.80;;
249;SDS011;109;19.806;-70.704;2023-04-06T06:48:21;16.87;;;5.63;;
249;SDS011;109;19.806;-70.704;2023-04-06T06:50:47;19.60;;;5.70;;
249;SDS011;109;19.806;-70.704;2023-04-06T06:53:21;17.07;;;5.37;;
249;SDS011;109;19.806;-70.704;2023-04-06T06:55:47;20.10;;;5.77;;
249;SDS011;109;19.806;-70.704;2023-04-06T06:58:24;15.70;;;5.13;;
249;SDS011;109;19.806;-70.704;2023-04-06T07:00:50;16.33;;;5.00;;
249;SDS011;109;19.806;-70.704;2023-04-06T07:03:37;19.10;;;5.00;;
249;SDS011;109;19.806;-70.704;2023-04-06T07:06:11;22.90;;;5.27;;
249;SDS011;109;19.806;-70.704;2023-04-06T07:08:39;15.77;;;5.17;;
249;SDS011;109;19.806;-70.704;2023-04-06T07:11:12;20.53;;;5.00;;
249;SDS011;109;19.806;-70.704;2023-04-06T07:13:38;24.90;;;4.90;;
249;SDS011;109;19.806;-70.704;2023-04-06T07:16:12;14.30;;;4.60;;
249;SDS011;109;19.806;-70.704;2023-04-06T07:18:38;20.23;;;5.07;;
249;SDS011;109;19.806;-70.704;2023-04-06T07:21:12;24.33;;;6.00;;
249;SDS011;109;19.806;-70.704;2023-04-06T07:23:39;12.70;;;4.50;;
249;SDS011;109;19.806;-70.704;2023-04-06T07:26:13;20.37;;;5.30;;
249;SDS011;109;19.806;-70.704;2023-04-06T07:28:40;17.80;;;4.83;;
249;SDS011;109;19.806;-70.704;2023-04-06T07:31:13;25.47;;;6.10;;
249;SDS011;109;19.806;-70.704;2023-04-06T07:33:40;15.73;;;5.17;;
249;SDS011;109;19.806;-70.704;2023-04-06T07:36:13;34.87;;;6.23;;
249;SDS011;109;19.806;-70.704;2023-04-06T07:38:59;20.83;;;5.30;;
249;SDS011;109;19.806;-70.704;2023-04-06T07:41:34;25.47;;;5.40;;
249;SDS011;109;19.806;-70.704;2023-04-06T07:44:00;19.83;;;5.47;;
249;SDS011;109;19.806;-70.704;2023-04-06T07:46:41;18.00;;;4.60;;
249;SDS011;109;19.806;-70.704;2023-04-06T07:49:15;25.70;;;6.57;;
249;SDS011;109;19.806;-70.704;2023-04-06T07:51:42;17.10;;;4.83;;
249;SDS011;109;19.806;-70.704;2023-04-06T07:54:16;12.30;;;4.10;;
249;SDS011;109;19.806;-70.704;2023-04-06T07:56:42;19.27;;;5.23;;
249;SDS011;109;19.806;-70.704;2023-04-06T07:59:16;19.60;;;5.67;;
249;SDS011;109;19.806;-70.704;2023-04-06T08:01:42;23.30;;;4.80;;
249;SDS011;109;19.806;-70.704;2023-04-06T08:04:23;14.07;;;4.10;;
249;SDS011;109;19.806;-70.704;2023-04-06T08:06:57;17.30;;;4.60;;
249;SDS011;109;19.806;-70.704;2023-04-06T08:09:23;16.90;;;4.70;;
249;SDS011;109;19.806;-70.704;2023-04-06T08:11:57;16.00;;;4.77;;
249;SDS011;109;19.806;-70.704;2023-04-06T08:14:24;15.47;;;4.53;;
249;SDS011;109;19.806;-70.704;2023-04-06T08:16:57;14.83;;;4.77;;
249;SDS011;109;19.806;-70.704;2023-04-06T08:19:23;13.57;;;4.70;;
249;SDS011;109;19.806;-70.704;2023-04-06T08:21:57;17.50;;;4.40;;
249;SDS011;109;19.806;-70.704;2023-04-06T08:24:23;10.50;;;4.30;;
249;SDS011;109;19.806;-70.704;2023-04-06T08:26:57;18.57;;;5.10;;
249;SDS011;109;19.806;-70.704;2023-04-06T08:29:23;16.80;;;4.90;;
249;SDS011;109;19.806;-70.704;2023-04-06T08:31:57;19.97;;;4.80;;
249;SDS011;109;19.806;-70.704;2023-04-06T08:34:23;17.40;;;5.13;;
249;SDS011;109;19.806;-70.704;2023-04-06T08:36:57;22.47;;;4.90;;
249;SDS011;109;19.806;-70.704;2023-04-06T08:39:44;17.33;;;5.30;;
249;SDS011;109;19.806;-70.704;2023-04-06T08:42:21;13.47;;;4.30;;
249;SDS011;109;19.806;-70.704;2023-04-06T08:44:57;16.37;;;5.03;;
249;SDS011;109;19.806;-70.704;2023-04-06T08:47:30;19.03;;;5.47;;
249;SDS011;109;19.806;-70.704;2023-04-06T08:50:04;16.00;;;5.77;;
249;SDS011;109;19.806;-70.704;2023-04-06T08:52:31;15.40;;;5.27;;
249;SDS011;109;19.806;-70.704;2023-04-06T08:55:06;12.27;;;5.47;;
249;SDS011;109;19.806;-70.704;2023-04-06T08:57:33;21.90;;;5.63;;
249;SDS011;109;19.806;-70.704;2023-04-06T09:00:09;15.63;;;4.97;;
249;SDS011;109;19.806;-70.704;2023-04-06T09:02:40;21.87;;;5.93;;
249;SDS011;109;19.806;-70.704;2023-04-06T09:05:23;24.97;;;6.33;;
249;SDS011;109;19.806;-70.704;2023-04-06T09:07:58;18.23;;;6.43;;
249;SDS011;109;19.806;-70.704;2023-04-06T09:10:24;21.67;;;5.13;;
249;SDS011;109;19.806;-70.704;2023-04-06T09:13:02;25.40;;;6.37;;
249;SDS011;109;19.806;-70.704;2023-04-06T09:15:38;20.20;;;4.80;;
249;SDS011;109;19.806;-70.704;2023-04-06T09:18:05;20.60;;;5.07;;
249;SDS011;109;19.806;-70.704;2023-04-06T09:20:38;20.70;;;4.83;;
249;SDS011;109;19.806;-70.704;2023-04-06T09:23:04;14.10;;;5.20;;
249;SDS011;109;19.806;-70.704;2023-04-06T09:25:38;24.70;;;4.80;;
249;SDS011;109;19.806;-70.704;2023-04-06T09:28:05;28.17;;;6.27;;
249;SDS011;109;19.806;-70.704;2023-04-06T09:30:47;21.53;;;4.70;;
249;SDS011;109;19.806;-70.704;2023-04-06T09:33:23;16.33;;;5.80;;
249;SDS011;109;19.806;-70.704;2023-04-06T09:35:50;19.57;;;4.90;;
249;SDS011;109;19.806;-70.704;2023-04-06T09:38:24;18.60;;;4.97;;
249;SDS011;109;19.806;-70.704;2023-04-06T09:41:04;20.50;;;5.00;;
249;SDS011;109;19.806;-70.704;2023-04-06T09:43:31;22.70;;;5.80;;
249;SDS011;109;19.806;-70.704;2023-04-06T09:46:04;27.30;;;5.77;;
249;SDS011;109;19.806;-70.704;2023-04-06T09:48:38;21.80;;;5.20;;
249;SDS011;109;19.806;-70.704;2023-04-06T09:51:12;20.87;;;5.03;;
249;SDS011;109;19.806;-70.704;2023-04-06T09:53:41;13.60;;;4.60;;
249;SDS011;109;19.806;-70.704;2023-04-06T09:56:18;19.83;;;5.43;;
249;SDS011;109;19.806;-70.704;2023-04-06T09:58:59;20.60;;;5.23;;
249;SDS011;109;19.806;-70.704;2023-04-06T10:01:37;13.57;;;4.20;;
249;SDS011;109;19.806;-70.704;2023-04-06T10:04:27;13.90;;;4.30;;
249;SDS011;109;19.806;-70.704;2023-04-06T10:07:18;9.53;;;4.50;;
249;SDS011;109;19.806;-70.704;2023-04-06T10:09:52;18.70;;;5.00;;
249;SDS011;109;19.806;-70.704;2023-04-06T10:12:20;19.83;;;5.50;;
249;SDS011;109;19.806;-70.704;2023-04-06T10:14:53;11.90;;;4.70;;
249;SDS011;109;19.806;-70.704;2023-04-06T10:17:20;23.27;;;5.27;;
249;SDS011;109;19.806;-70.704;2023-04-06T10:20:36;16.40;;;4.43;;
249;SDS011;109;19.806;-70.704;2023-04-06T10:23:13;14.53;;;5.00;;
249;SDS011;109;19.806;-70.704;2023-04-06T10:25:56;26.50;;;5.30;;
249;SDS011;109;19.806;-70.704;2023-04-06T10:31:06;16.60;;;4.67;;
249;SDS011;109;19.806;-70.704;2023-04-06T10:33:58;16.00;;;4.30;;
249;SDS011;109;19.806;-70.704;2023-04-06T10:36:35;12.63;;;3.60;;
249;SDS011;109;19.806;-70.704;2023-04-06T10:39:02;16.03;;;4.00;;
249;SDS011;109;19.806;-70.704;2023-04-06T10:41:43;27.90;;;4.57;;
249;SDS011;109;19.806;-70.704;2023-04-06T10:44:21;17.83;;;4.07;;
249;SDS011;109;19.806;-70.704;2023-04-06T10:46:56;17.47;;;3.80;;
249;SDS011;109;19.806;-70.704;2023-04-06T10:49:27;11.63;;;3.83;;
249;SDS011;109;19.806;-70.704;2023-04-06T10:51:54;13.40;;;3.90;;
249;SDS011;109;19.806;-70.704;2023-04-06T10:54:21;17.13;;;3.87;;
249;SDS011;109;19.806;-70.704;2023-04-06T10:56:50;23.10;;;6.13;;
249;SDS011;109;19.806;-70.704;2023-04-06T10:59:20;14.83;;;4.40;;
249;SDS011;109;19.806;-70.704;2023-04-06T11:01:47;20.13;;;4.80;;
249;SDS011;109;19.806;-70.704;2023-04-06T11:04:17;12.97;;;4.33;;
249;SDS011;109;19.806;-70.704;2023-04-06T11:06:48;14.20;;;5.23;;
249;SDS011;109;19.806;-70.704;2023-04-06T11:09:28;19.40;;;4.33;;
249;SDS011;109;19.806;-70.704;2023-04-06T11:11:57;12.83;;;5.67;;
249;SDS011;109;19.806;-70.704;2023-04-06T11:14:23;12.57;;;5.13;;
249;SDS011;109;19.806;-70.704;2023-04-06T11:16:52;10.80;;;4.70;;
249;SDS011;109;19.806;-70.704;2023-04-06T11:19:18;15.50;;;4.60;;
249;SDS011;109;19.806;-70.704;2023-04-06T11:21:45;13.03;;;4.50;;
249;SDS011;109;19.806;-70.704;2023-04-06T11:24:17;12.10;;;5.33;;
249;SDS011;109;19.806;-70.704;2023-04-06T11:26:46;13.17;;;5.80;;
249;SDS011;109;19.806;-70.704;2023-04-06T11:29:17;14.23;;;6.77;;
249;SDS011;109;19.806;-70.704;2023-04-06T11:31:46;14.93;;;7.53;;
249;SDS011;109;19.806;-70.704;2023-04-06T11:34:21;22.70;;;8.17;;
249;SDS011;109;19.806;-70.704;2023-04-06T11:36:53;23.00;;;7.87;;
249;SDS011;109;19.806;-70.704;2023-04-06T11:39:24;18.33;;;8.37;;
249;SDS011;109;19.806;-70.704;2023-04-06T11:41:59;20.67;;;7.60;;
249;SDS011;109;19.806;-70.704;2023-04-06T11:44:40;14.00;;;6.30;;
249;SDS011;109;19.806;-70.704;2023-04-06T11:47:11;15.97;;;6.97;;
249;SDS011;109;19.806;-70.704;2023-04-06T11:49:39;14.63;;;5.90;;
249;SDS011;109;19.806;-70.704;2023-04-06T11:52:17;20.17;;;5.50;;
249;SDS011;109;19.806;-70.704;2023-04-06T11:54:45;30.33;;;18.40;;
249;SDS011;109;19.806;-70.704;2023-04-06T11:57:13;55.23;;;13.40;;
249;SDS011;109;19.806;-70.704;2023-04-06T11:59:40;58.80;;;11.73;;
249;SDS011;109;19.806;-70.704;2023-04-06T12:02:06;32.40;;;10.80;;
249;SDS011;109;19.806;-70.704;2023-04-06T12:04:33;31.10;;;16.40;;
249;SDS011;109;19.806;-70.704;2023-04-06T12:07:00;28.10;;;16.40;;
249;SDS011;109;19.806;-70.704;2023-04-06T12:09:27;27.50;;;20.67;;
249;SDS011;109;19.806;-70.704;2023-04-06T12:11:53;22.47;;;14.23;;
249;SDS011;109;19.806;-70.704;2023-04-06T12:14:21;29.87;;;19.77;;
249;SDS011;109;19.806;-70.704;2023-04-06T12:16:48;31.87;;;15.30;;
249;SDS011;109;19.806;-70.704;2023-04-06T12:19:15;20.30;;;8.73;;
249;SDS011;109;19.806;-70.704;2023-04-06T12:21:41;17.13;;;7.30;;
249;SDS011;109;19.806;-70.704;2023-04-06T12:24:08;20.03;;;6.90;;
249;SDS011;109;19.806;-70.704;2023-04-06T12:26:35;19.03;;;6.60;;
249;SDS011;109;19.806;-70.704;2023-04-06T12:29:03;56.67;;;10.10;;
249;SDS011;109;19.806;-70.704;2023-04-06T12:31:34;45.80;;;8.30;;
249;SDS011;109;19.806;-70.704;2023-04-06T12:34:02;28.60;;;6.77;;
249;SDS011;109;19.806;-70.704;2023-04-06T12:36:29;34.07;;;6.60;;
249;SDS011;109;19.806;-70.704;2023-04-06T12:38:56;28.20;;;4.77;;
249;SDS011;109;19.806;-70.704;2023-04-06T12:41:23;37.97;;;6.40;;
249;SDS011;109;19.806;-70.704;2023-04-06T12:43:50;29.80;;;6.20;;
249;SDS011;109;19.806;-70.704;2023-04-06T12:46:17;32.03;;;6.60;;
249;SDS011;109;19.806;-70.704;2023-04-06T12:48:43;24.23;;;6.20;;
249;SDS011;109;19.806;-70.704;2023-04-06T12:51:10;22.07;;;5.53;;
249;SDS011;109;19.806;-70.704;2023-04-06T12:53:36;17.23;;;5.90;;
249;SDS011;109;19.806;-70.704;2023-04-06T12:56:12;18.17;;;5.10;;
249;SDS011;109;19.806;-70.704;2023-04-06T12:58:40;25.00;;;6.40;;
249;SDS011;109;19.806;-70.704;2023-04-06T13:01:07;25.40;;;5.60;;
249;SDS011;109;19.806;-70.704;2023-04-06T13:03:34;24.70;;;7.70;;
249;SDS011;109;19.806;-70.704;2023-04-06T13:06:01;27.93;;;6.20;;
249;SDS011;109;19.806;-70.704;2023-04-06T13:08:28;17.73;;;5.77;;
249;SDS011;109;19.806;-70.704;2023-04-06T13:10:54;22.13;;;6.30;;
249;SDS011;109;19.806;-70.704;2023-04-06T13:13:22;21.50;;;6.50;;
249;SDS011;109;19.806;-70.704;2023-04-06T13:15:50;17.80;;;6.27;;
249;SDS011;109;19.806;-70.704;2023-04-06T13:18:21;23.10;;;6.90;;
249;SDS011;109;19.806;-70.704;2023-04-06T13:20:48;22.90;;;7.30;;
249;SDS011;109;19.806;-70.704;2023-04-06T13:23:15;19.57;;;8.27;;
249;SDS011;109;19.806;-70.704;2023-04-06T13:25:42;23.20;;;8.00;;
249;SDS011;109;19.806;-70.704;2023-04-06T13:28:08;24.13;;;7.60;;
249;SDS011;109;19.806;-70.704;2023-04-06T13:30:36;15.77;;;6.80;;
249;SDS011;109;19.806;-70.704;2023-04-06T13:33:03;13.80;;;6.40;;
249;SDS011;109;19.806;-70.704;2023-04-06T13:35:30;20.10;;;5.93;;
249;SDS011;109;19.806;-70.704;2023-04-06T13:37:56;17.57;;;5.90;;
249;SDS011;109;19.806;-70.704;2023-04-06T13:40:23;36.53;;;5.57;;
249;SDS011;109;19.806;-70.704;2023-04-06T13:42:49;23.97;;;7.33;;
249;SDS011;109;19.806;-70.704;2023-04-06T13:45:16;28.03;;;6.90;;
249;SDS011;109;19.806;-70.704;2023-04-06T13:47:42;23.27;;;5.50;;
249;SDS011;109;19.806;-70.704;2023-04-06T13:50:09;16.23;;;4.73;;
249;SDS011;109;19.806;-70.704;2023-04-06T13:52:36;33.13;;;5.50;;
249;SDS011;109;19.806;-70.704;2023-04-06T13:55:02;41.13;;;6.43;;
249;SDS011;109;19.806;-70.704;2023-04-06T14:13:05;17.83;;;4.53;;
249;SDS011;109;19.806;-70.704;2023-04-06T14:15:32;30.93;;;7.07;;
249;SDS011;109;19.806;-70.704;2023-04-06T14:17:59;26.97;;;5.03;;
249;SDS011;109;19.806;-70.704;2023-04-06T14:20:26;37.00;;;6.70;;
249;SDS011;109;19.806;-70.704;2023-04-06T14:22:52;33.33;;;6.20;;
249;SDS011;109;19.806;-70.704;2023-04-06T14:25:20;27.30;;;5.90;;
249;SDS011;109;19.806;-70.704;2023-04-06T14:27:47;25.80;;;5.37;;
249;SDS011;109;19.806;-70.704;2023-04-06T14:30:13;27.53;;;6.13;;
249;SDS011;109;19.806;-70.704;2023-04-06T14:32:40;27.10;;;5.13;;
249;SDS011;109;19.806;-70.704;2023-04-06T14:35:07;23.73;;;4.60;;
249;SDS011;109;19.806;-70.704;2023-04-06T14:37:34;37.83;;;5.40;;
249;SDS011;109;19.806;-70.704;2023-04-06T14:40:01;27.13;;;6.00;;
249;SDS011;109;19.806;-70.704;2023-04-06T14:42:28;23.10;;;5.00;;
249;SDS011;109;19.806;-70.704;2023-04-06T14:44:54;25.33;;;5.20;;
249;SDS011;109;19.806;-70.704;2023-04-06T14:47:21;23.07;;;4.73;;
249;SDS011;109;19.806;-70.704;2023-04-06T14:49:49;38.23;;;5.13;;
249;SDS011;109;19.806;-70.704;2023-04-06T14:52:17;32.57;;;5.37;;
249;SDS011;109;19.806;-70.704;2023-04-06T14:54:43;37.17;;;6.67;;
249;SDS011;109;19.806;-70.704;2023-04-06T14:57:10;37.07;;;6.17;;
249;SDS011;109;19.806;-70.704;2023-04-06T14:59:36;37.33;;;5.77;;
249;SDS011;109;19.806;-70.704;2023-04-06T15:02:03;43.27;;;6.03;;
249;SDS011;109;19.806;-70.704;2023-04-06T15:04:29;25.60;;;5.00;;
249;SDS011;109;19.806;-70.704;2023-04-06T15:06:56;44.20;;;8.33;;
249;SDS011;109;19.806;-70.704;2023-04-06T15:09:22;30.67;;;5.60;;
249;SDS011;109;19.806;-70.704;2023-04-06T15:11:49;27.83;;;5.33;;
249;SDS011;109;19.806;-70.704;2023-04-06T15:14:15;45.03;;;6.93;;
249;SDS011;109;19.806;-70.704;2023-04-06T15:16:42;41.00;;;6.13;;
249;SDS011;109;19.806;-70.704;2023-04-06T15:19:08;29.93;;;5.40;;
249;SDS011;109;19.806;-70.704;2023-04-06T15:21:36;21.87;;;4.60;;
249;SDS011;109;19.806;-70.704;2023-04-06T15:24:02;35.93;;;5.47;;
249;SDS011;109;19.806;-70.704;2023-04-06T15:26:31;30.27;;;5.47;;
249;SDS011;109;19.806;-70.704;2023-04-06T15:28:59;25.40;;;4.83;;
249;SDS011;109;19.806;-70.704;2023-04-06T15:31:26;21.73;;;4.90;;
249;SDS011;109;19.806;-70.704;2023-04-06T15:33:54;31.27;;;4.67;;
249;SDS011;109;19.806;-70.704;2023-04-06T15:36:25;24.20;;;5.63;;
249;SDS011;109;19.806;-70.704;2023-04-06T15:38:56;30.40;;;6.30;;
249;SDS011;109;19.806;-70.704;2023-04-06T15:41:23;18.90;;;4.40;;
249;SDS011;109;19.806;-70.704;2023-04-06T15:43:51;24.37;;;4.30;;
249;SDS011;109;19.806;-70.704;2023-04-06T15:46:18;28.47;;;5.13;;
249;SDS011;109;19.806;-70.704;2023-04-06T15:48:46;28.00;;;4.80;;